Time;durP1;ratioP1;P1;durP2;ratioP2;P2;SDS_P1;SDS_P2;PMS_P1;PMS_P2;Temp;Humidity;BMP_temperature;BMP_pressure;BME280_temperature;BME280_humidity;BME280_pressure;Samples;Min_cycle;Max_cycle;Signal;HPM_P1;HPM_P2
2021/12/27 00:02:12;;;;;;;12.37;8.13;;;;;;;3.58;85.79;95086.00;10293575;28;96932;-76
2021/12/27 00:07:16;;;;;;;6.07;4.63;;;;;;;3.48;85.88;95087.75;10295203;28;96805;-75
2021/12/27 00:12:20;;;;;;;5.13;3.83;;;;;;;3.49;85.50;95087.63;10292766;28;96855;-76
2021/12/27 00:17:23;;;;;;;7.07;4.82;;;;;;;3.48;85.68;95078.22;10290086;28;101797;-75
2021/12/27 00:22:25;;;;;;;6.00;4.13;;;;;;;3.50;85.19;95072.94;10295421;28;98569;-75
2021/12/27 00:27:30;;;;;;;6.18;4.15;;;;;;;3.47;85.39;95066.28;10294160;28;96700;-75
2021/12/27 00:32:36;;;;;;;50.53;5.05;;;;;;;3.02;86.12;95061.53;10287666;28;97207;-76
2021/12/27 00:37:39;;;;;;;5.20;2.83;;;;;;;2.86;86.33;95057.69;10294771;28;100379;-75
2021/12/27 00:42:43;;;;;;;5.30;3.25;;;;;;;2.87;86.41;95048.16;10290450;28;96904;-75
2021/12/27 00:47:46;;;;;;;9.47;4.33;;;;;;;2.86;86.05;95047.38;10286910;28;96926;-75
2021/12/27 00:52:50;;;;;;;7.03;4.05;;;;;;;2.85;85.78;95047.50;10291006;28;97044;-75
2021/12/27 00:57:54;;;;;;;8.05;3.83;;;;;;;2.78;85.84;95038.66;10282591;28;96775;-75
2021/12/27 01:02:57;;;;;;;6.38;3.67;;;;;;;2.79;86.32;95035.09;10284334;28;96771;-76
2021/12/27 01:08:00;;;;;;;5.53;3.50;;;;;;;2.79;85.55;95045.41;10286185;28;96882;-75
2021/12/27 01:13:17;;;;;;;5.70;2.95;;;;;;;2.71;85.08;95035.75;10283273;28;103034;-76
2021/12/27 01:18:21;;;;;;;7.65;5.68;;;;;;;2.46;85.43;95024.94;10285002;28;96828;-75
2021/12/27 01:23:24;;;;;;;24.15;15.45;;;;;;;2.39;85.95;95022.97;10288430;28;96873;-75
2021/12/27 01:28:28;;;;;;;4.68;3.75;;;;;;;2.41;85.69;95021.09;10293051;28;96908;-75
2021/12/27 01:33:31;;;;;;;7.32;3.80;;;;;;;2.18;85.63;95026.41;10288354;28;96719;-75
2021/12/27 01:38:35;;;;;;;6.82;4.50;;;;;;;1.99;85.96;95021.09;10287272;28;99136;-75
2021/12/27 01:43:41;;;;;;;6.38;4.15;;;;;;;1.98;85.74;95024.63;10292352;28;97734;-75
2021/12/27 01:48:48;;;;;;;6.97;3.88;;;;;;;1.83;85.90;95022.34;10287638;28;97305;-75
2021/12/27 01:53:51;;;;;;;4.70;3.10;;;;;;;1.86;85.88;95022.09;10290795;28;96810;-75
2021/12/27 01:58:56;;;;;;;3.78;3.00;;;;;;;1.91;86.04;95019.97;10302138;28;96774;-75
2021/12/27 02:03:59;;;;;;;4.85;2.75;;;;;;;1.92;85.62;95008.75;10298324;28;96922;-75
2021/12/27 02:09:04;;;;;;;5.03;2.65;;;;;;;1.78;85.89;95010.78;10297082;28;96866;-75
2021/12/27 02:14:08;;;;;;;4.07;3.03;;;;;;;1.74;86.04;94997.34;10294707;28;96870;-75
2021/12/27 02:19:11;;;;;;;3.17;2.42;;;;;;;1.72;85.42;94999.25;10291431;28;97967;-75
2021/12/27 02:24:15;;;;;;;4.32;2.78;;;;;;;1.72;85.30;94999.25;10294561;28;98612;-75
2021/12/27 02:29:19;;;;;;;5.20;3.50;;;;;;;1.43;85.34;94986.94;10299472;28;98909;-75
2021/12/27 02:34:22;;;;;;;4.20;3.17;;;;;;;1.45;85.29;94997.97;10294176;28;97092;-75
2021/12/27 02:39:26;;;;;;;6.03;4.40;;;;;;;1.43;85.38;94994.66;10297698;28;96909;-74
2021/12/27 02:44:29;;;;;;;7.00;5.30;;;;;;;1.46;85.11;94988.47;10295962;28;96900;-74
2021/12/27 02:49:32;;;;;;;9.02;6.07;;;;;;;1.50;84.89;94982.94;10285032;28;98726;-75
2021/12/27 02:54:36;;;;;;;12.60;8.55;;;;;;;1.46;84.99;94971.25;10290011;28;98164;-74
2021/12/27 02:59:39;;;;;;;9.52;6.00;;;;;;;1.39;85.03;94972.69;10293440;28;100597;-75
2021/12/27 03:04:45;;;;;;;7.22;4.75;;;;;;;1.40;84.84;94974.34;10288178;28;98471;-74
2021/12/27 03:09:50;;;;;;;5.65;3.05;;;;;;;1.10;85.53;94977.59;10287690;28;96794;-74
2021/12/27 03:14:53;;;;;;;4.72;3.38;;;;;;;1.04;85.30;94965.22;10290277;28;100676;-74
2021/12/27 03:19:55;;;;;;;7.68;3.33;;;;;;;1.12;85.11;94958.53;10289473;28;98034;-75
2021/12/27 03:25:00;;;;;;;5.72;3.33;;;;;;;1.18;85.35;94960.59;10291491;28;100907;-75
2021/12/27 03:30:05;;;;;;;4.70;3.67;;;;;;;1.25;85.30;94953.22;10289995;28;96871;-75
2021/12/27 03:35:13;;;;;;;4.68;3.53;;;;;;;1.30;84.83;94942.56;10302428;28;97030;-75
2021/12/27 03:40:20;;;;;;;4.30;3.35;;;;;;;1.30;84.99;94932.28;10285124;28;97561;-75
2021/12/27 03:45:26;;;;;;;3.97;2.65;;;;;;;1.12;85.63;94944.84;10286597;28;97592;-74
2021/12/27 03:50:29;;;;;;;4.32;2.65;;;;;;;1.16;85.66;94936.75;10289206;28;97031;-75
2021/12/27 03:55:33;;;;;;;11.32;5.03;;;;;;;1.22;85.61;94921.78;10286926;28;96851;-75
2021/12/27 04:00:59;;;;;;;14.05;6.75;;;;;;;1.14;85.50;94918.06;10287132;28;96998;-75
2021/12/27 04:06:02;;;;;;;25.23;8.80;;;;;;;1.20;86.17;94923.66;10287340;28;97558;-75
2021/12/27 04:11:07;;;;;;;42.65;9.48;;;;;;;1.23;85.73;94918.28;10286154;28;96932;-75
2021/12/27 04:16:09;;;;;;;26.98;9.70;;;;;;;1.02;85.88;94921.63;10285667;28;100135;-75
2021/12/27 04:21:12;;;;;;;49.40;9.05;;;;;;;0.85;85.80;94922.13;10290405;28;98498;-75
2021/12/27 04:26:17;;;;;;;28.80;8.18;;;;;;;0.86;86.46;94929.72;10296611;28;96664;-75
2021/12/27 04:31:19;;;;;;;24.20;5.25;;;;;;;0.68;85.93;94928.59;10294529;28;97324;-75
2021/12/27 04:36:22;;;;;;;36.92;6.28;;;;;;;0.58;86.89;94928.47;10292250;28;102678;-75
2021/12/27 04:41:27;;;;;;;35.00;7.07;;;;;;;0.54;86.68;94927.09;10295116;28;96868;-75
2021/12/27 04:46:30;;;;;;;39.67;8.00;;;;;;;0.56;87.39;94925.22;10293908;28;96761;-75
2021/12/27 04:51:33;;;;;;;44.55;8.00;;;;;;;0.62;87.27;94929.91;10294467;28;97082;-75
2021/12/27 04:56:37;;;;;;;81.18;8.43;;;;;;;0.80;86.94;94918.16;10293534;28;96683;-75
2021/12/27 05:01:40;;;;;;;68.83;9.03;;;;;;;0.97;87.19;94905.75;10293644;28;96747;-74
2021/12/27 05:06:43;;;;;;;62.38;8.13;;;;;;;1.08;86.63;94897.97;10293863;28;96840;-74
2021/12/27 05:11:48;;;;;;;41.92;8.15;;;;;;;1.18;87.00;94893.72;10290725;28;96921;-74
2021/12/27 05:16:51;;;;;;;80.32;8.45;;;;;;;1.33;86.63;94880.56;10295093;28;96861;-74
2021/12/27 05:21:53;;;;;;;52.40;8.07;;;;;;;1.42;86.28;94884.97;10294007;28;96712;-74
2021/12/27 05:26:58;;;;;;;36.50;7.80;;;;;;;1.48;87.21;94881.88;10290209;28;96730;-74
2021/12/27 05:32:01;;;;;;;50.60;7.53;;;;;;;1.52;87.04;94870.41;10295560;28;96863;-74
2021/12/27 05:37:10;;;;;;;47.15;7.32;;;;;;;1.58;87.17;94870.84;10293032;28;96803;-74
2021/12/27 05:42:14;;;;;;;44.50;7.68;;;;;;;1.63;87.31;94866.13;10289433;28;96806;-74
2021/12/27 05:47:17;;;;;;;61.30;7.13;;;;;;;1.59;87.39;94865.56;10294659;28;96665;-74
2021/12/27 05:52:20;;;;;;;32.17;6.40;;;;;;;1.63;87.63;94850.69;10292553;28;97054;-75
2021/12/27 05:57:24;;;;;;;38.95;7.35;;;;;;;1.72;87.91;94857.63;10290848;28;101603;-74
2021/12/27 06:02:27;;;;;;;30.25;7.50;;;;;;;1.82;87.59;94850.78;10291505;28;96951;-75
2021/12/27 06:07:31;;;;;;;38.58;7.60;;;;;;;1.92;86.96;94855.97;10292155;28;96915;-74
2021/12/27 06:12:35;;;;;;;68.55;8.65;;;;;;;2.00;88.08;94852.75;10291528;28;96704;-75
2021/12/27 06:17:39;;;;;;;53.83;8.60;;;;;;;1.99;87.31;94848.53;10275319;28;96977;-74
2021/12/27 06:22:47;;;;;;;44.22;7.75;;;;;;;2.02;88.03;94850.84;10292467;28;96842;-74
2021/12/27 06:27:51;;;;;;;33.67;8.13;;;;;;;2.05;87.66;94840.31;10291708;28;97278;-75
2021/12/27 06:32:54;;;;;;;67.95;9.48;;;;;;;2.10;87.58;94833.00;10288999;28;98673;-74
2021/12/27 06:37:57;;;;;;;58.03;8.05;;;;;;;2.10;87.72;94838.16;10297254;28;96671;-74
2021/12/27 06:43:02;;;;;;;63.42;9.57;;;;;;;2.06;87.78;94823.88;10298109;28;96959;-75
2021/12/27 06:48:05;;;;;;;62.80;8.33;;;;;;;2.09;88.26;94824.47;10293840;28;96931;-75
2021/12/27 06:53:08;;;;;;;32.95;7.45;;;;;;;2.15;87.85;94815.38;10300374;28;97185;-75
2021/12/27 06:58:17;;;;;;;57.45;8.68;;;;;;;2.20;87.84;94813.25;10297891;28;96709;-75
2021/12/27 07:03:20;;;;;;;53.50;8.60;;;;;;;2.06;87.86;94791.22;10295378;28;97057;-74
2021/12/27 07:08:23;;;;;;;64.50;7.78;;;;;;;1.93;88.53;94796.59;10298661;28;96943;-74
2021/12/27 07:13:27;;;;;;;55.05;8.45;;;;;;;2.06;88.18;94796.38;10297523;28;96990;-75
2021/12/27 07:18:30;;;;;;;94.43;11.65;;;;;;;2.07;88.22;94790.28;10296705;28;97357;-74
2021/12/27 07:23:33;;;;;;;49.90;8.48;;;;;;;2.12;88.26;94800.19;10296704;28;96819;-74
2021/12/27 07:28:38;;;;;;;51.05;7.32;;;;;;;2.15;88.49;94810.25;10297837;28;96683;-74
2021/12/27 07:33:41;;;;;;;60.10;8.57;;;;;;;2.22;88.43;94821.66;10296856;28;96879;-74
2021/12/27 07:38:44;;;;;;;71.85;18.10;;;;;;;2.23;88.16;94825.88;10295128;28;96929;-75
2021/12/27 07:43:48;;;;;;;50.95;11.20;;;;;;;2.26;87.90;94833.31;10296133;28;96970;-75
2021/12/27 07:48:54;;;;;;;42.15;10.73;;;;;;;2.33;88.20;94835.38;10295617;28;96812;-75
2021/12/27 07:53:57;;;;;;;81.53;12.82;;;;;;;2.37;88.57;94829.84;10293067;28;96851;-75
2021/12/27 07:59:04;;;;;;;73.13;11.10;;;;;;;2.43;88.58;94833.63;10299241;28;96893;-75
2021/12/27 08:04:08;;;;;;;52.28;10.48;;;;;;;2.40;88.49;94833.91;10295711;28;96917;-75
2021/12/27 08:09:11;;;;;;;53.37;11.27;;;;;;;2.49;88.22;94836.50;10291723;28;96818;-75
2021/12/27 08:14:16;;;;;;;64.47;12.07;;;;;;;2.55;88.34;94827.41;10298101;28;97042;-74
2021/12/27 08:19:19;;;;;;;49.33;13.10;;;;;;;2.61;88.09;94850.06;10295551;28;96734;-75
2021/12/27 08:24:23;;;;;;;40.13;13.32;;;;;;;2.63;88.79;94850.78;10293196;28;96854;-75
2021/12/27 08:29:28;;;;;;;40.58;17.83;;;;;;;2.68;88.34;94855.50;10295150;28;96894;-74
2021/12/27 08:34:32;;;;;;;45.25;21.55;;;;;;;2.75;88.59;94853.22;10293955;28;96924;-74
2021/12/27 08:39:34;;;;;;;50.63;24.38;;;;;;;2.77;88.60;94861.63;10294215;28;96784;-75
2021/12/27 08:44:39;;;;;;;28.13;13.38;;;;;;;2.84;89.17;94884.19;10276742;28;96773;-75
2021/12/27 08:49:42;;;;;;;22.80;10.55;;;;;;;2.90;88.35;94888.00;10294833;28;96939;-75
2021/12/27 08:55:06;;;;;;;22.20;10.90;;;;;;;2.95;88.32;94890.97;10294075;28;96915;-75
2021/12/27 09:00:14;;;;;;;20.63;9.88;;;;;;;3.02;88.54;94906.75;10289935;28;96874;-75
2021/12/27 09:05:17;;;;;;;24.77;10.93;;;;;;;3.04;88.03;94912.59;10295611;28;96742;-75
2021/12/27 09:10:20;;;;;;;23.45;8.65;;;;;;;2.99;88.55;94918.13;10294383;28;96997;-75
2021/12/27 09:15:24;;;;;;;18.58;9.50;;;;;;;2.92;88.68;94926.56;10291802;28;96963;-74
2021/12/27 09:20:28;;;;;;;17.42;7.63;;;;;;;2.95;88.65;94936.63;10293555;28;96867;-75
2021/12/27 09:25:30;;;;;;;17.90;7.10;;;;;;;3.06;89.17;94942.44;10291835;28;96895;-75
2021/12/27 09:30:35;;;;;;;18.80;7.15;;;;;;;3.11;88.69;94941.25;10292478;28;97804;-75
2021/12/27 09:35:38;;;;;;;11.60;6.00;;;;;;;3.23;88.67;94946.13;10274509;28;98180;-75
2021/12/27 09:40:41;;;;;;;11.07;5.72;;;;;;;3.29;89.18;94949.94;10295159;28;96759;-75
2021/12/27 09:45:45;;;;;;;14.55;6.60;;;;;;;3.22;88.73;94933.38;10293560;28;97029;-75
2021/12/27 09:50:51;;;;;;;16.42;7.97;;;;;;;3.29;89.03;94942.19;10290117;28;96932;-75
2021/12/27 09:55:54;;;;;;;14.40;6.30;;;;;;;3.38;88.38;94931.09;10295062;28;96865;-75
2021/12/27 10:01:02;;;;;;;11.13;6.13;;;;;;;3.47;88.81;94918.31;10293208;28;97073;-75
2021/12/27 10:06:12;;;;;;;12.55;6.82;;;;;;;3.53;88.29;94915.16;10287977;28;96910;-75
2021/12/27 10:11:20;;;;;;;13.38;6.40;;;;;;;3.53;88.34;94915.16;10294766;28;96708;-75
2021/12/27 10:16:24;;;;;;;14.70;7.40;;;;;;;3.44;88.08;94916.81;10297885;28;97073;-75
2021/12/27 10:21:28;;;;;;;17.67;9.55;;;;;;;3.40;88.21;94916.25;10297349;28;96952;-75
2021/12/27 10:26:33;;;;;;;20.48;10.02;;;;;;;3.31;88.12;94905.94;10299101;28;96861;-75
2021/12/27 10:32:02;;;;;;;21.52;10.15;;;;;;;3.31;88.24;94886.13;10298054;28;96810;-75
2021/12/27 10:37:09;;;;;;;19.65;10.45;;;;;;;3.37;88.03;94882.97;10298710;28;100044;-75
2021/12/27 10:42:15;;;;;;;19.55;10.55;;;;;;;3.48;87.88;94865.72;10294977;28;96893;-75
2021/12/27 10:47:34;;;;;;;15.98;8.70;;;;;;;3.62;87.85;94860.94;10300263;28;96796;-75
2021/12/27 10:52:51;;;;;;;14.35;7.80;;;;;;;3.78;88.12;94862.94;10298141;28;96847;-74
2021/12/27 10:58:10;;;;;;;13.10;7.32;;;;;;;3.93;88.16;94854.72;10298412;28;96896;-74
2021/12/27 11:03:31;;;;;;;9.15;5.57;;;;;;;4.03;88.06;94855.50;10293921;28;98350;-74
2021/12/27 11:08:36;;;;;;;12.60;6.07;;;;;;;4.11;88.32;94862.56;10296022;28;96857;-74
2021/12/27 11:13:39;;;;;;;7.47;4.63;;;;;;;4.17;88.05;94860.22;10298529;28;96907;-74
2021/12/27 11:18:44;;;;;;;6.13;3.67;;;;;;;4.26;88.16;94849.97;10297145;28;97055;-74
2021/12/27 11:23:48;;;;;;;7.47;3.90;;;;;;;4.38;88.41;94854.81;10295485;28;100046;-74
2021/12/27 11:29:11;;;;;;;5.93;3.47;;;;;;;4.56;88.01;94861.81;10291995;28;96936;-74
2021/12/27 11:34:19;;;;;;;4.43;2.63;;;;;;;4.71;88.07;94869.88;10296419;28;96782;-74
2021/12/27 11:39:27;;;;;;;3.88;2.10;;;;;;;4.79;88.39;94874.34;10294516;28;97217;-74
2021/12/27 11:44:35;;;;;;;2.63;1.55;;;;;;;4.93;88.47;94873.84;10297548;28;96755;-74
2021/12/27 11:49:55;;;;;;;2.33;1.48;;;;;;;4.98;88.71;94865.66;10296659;28;97002;-74
2021/12/27 11:55:00;;;;;;;2.60;1.70;;;;;;;5.07;88.54;94860.38;10296048;28;96767;-74
2021/12/27 12:00:32;;;;;;;2.30;1.40;;;;;;;5.15;88.44;94859.66;10290965;28;96833;-74
2021/12/27 12:05:39;;;;;;;3.53;1.25;;;;;;;5.17;88.49;94860.31;10294696;28;96946;-74
2021/12/27 12:10:50;;;;;;;1.63;1.25;;;;;;;5.18;88.49;94866.31;10298266;28;96757;-74
2021/12/27 12:16:06;;;;;;;1.85;1.10;;;;;;;5.14;88.51;94868.38;10295626;28;97093;-74
2021/12/27 12:21:39;;;;;;;2.10;1.10;;;;;;;5.17;88.63;94867.25;10291582;28;96718;-74
2021/12/27 12:26:53;;;;;;;1.95;1.00;;;;;;;5.29;88.40;94874.66;10152691;28;96863;-74
2021/12/27 12:32:03;;;;;;;1.85;1.30;;;;;;;5.36;87.86;94879.22;10171579;28;97027;-74
2021/12/27 12:37:10;;;;;;;2.10;1.60;;;;;;;5.43;87.64;94875.91;10169518;28;100243;-74
2021/12/27 12:42:16;;;;;;;3.25;1.45;;;;;;;5.46;87.78;94879.97;10166041;28;96956;-74
2021/12/27 12:47:20;;;;;;;3.80;1.80;;;;;;;5.52;87.61;94882.78;10170544;28;97128;-74
2021/12/27 12:52:25;;;;;;;2.30;1.58;;;;;;;5.53;87.63;94879.25;10167800;28;97008;-74
2021/12/27 12:57:28;;;;;;;2.55;1.50;;;;;;;5.59;87.46;94885.59;10167364;28;97331;-74
2021/12/27 13:02:35;;;;;;;4.50;1.38;;;;;;;5.58;87.42;94876.19;10264235;28;97947;-73
2021/12/27 13:07:44;;;;;;;2.20;1.63;;;;;;;5.64;87.62;94873.00;10293899;28;96967;-74
2021/12/27 13:12:47;;;;;;;3.88;1.67;;;;;;;5.67;87.60;94877.88;10293862;28;99807;-74
2021/12/27 13:18:05;;;;;;;4.15;1.52;;;;;;;5.69;87.76;94872.56;10291558;28;96770;-74
2021/12/27 13:23:11;;;;;;;3.25;1.90;;;;;;;5.69;87.72;94875.16;10296039;28;96895;-74
2021/12/27 13:28:19;;;;;;;3.53;1.70;;;;;;;5.68;87.60;94861.34;10293505;28;96807;-74
2021/12/27 13:33:25;;;;;;;1.92;1.52;;;;;;;5.69;87.66;94875.16;10291120;28;96961;-74
2021/12/27 13:38:31;;;;;;;3.15;1.50;;;;;;;5.59;87.80;94859.69;10293741;28;96868;-74
2021/12/27 13:43:46;;;;;;;2.63;1.40;;;;;;;5.58;87.96;94870.19;10292091;28;97207;-74
2021/12/27 13:48:49;;;;;;;2.83;1.60;;;;;;;5.55;88.29;94866.13;10291402;28;97651;-74
2021/12/27 13:53:56;;;;;;;1.83;1.20;;;;;;;5.51;88.26;94863.03;10289798;28;96780;-74
2021/12/27 13:59:05;;;;;;;3.22;1.13;;;;;;;5.45;88.03;94862.81;10294838;28;96744;-74
2021/12/27 14:04:14;;;;;;;2.97;1.60;;;;;;;5.43;88.34;94869.94;10292537;28;97061;-74
2021/12/27 14:09:32;;;;;;;2.35;1.30;;;;;;;5.41;88.24;94879.59;10291077;28;97195;-74
2021/12/27 14:14:37;;;;;;;2.42;1.55;;;;;;;5.37;88.12;94883.47;10290732;28;96771;-73
2021/12/27 14:19:42;;;;;;;1.58;1.23;;;;;;;5.33;88.16;94883.75;10293696;28;97571;-73
2021/12/27 14:24:53;;;;;;;;;;;;;;;5.31;88.44;94896.03;10292758;28;96926;-73
2021/12/27 14:30:16;;;;;;;2.38;1.88;;;;;;;5.31;88.59;94901.22;10288469;28;96694;-73
2021/12/27 14:35:22;;;;;;;1.67;1.40;;;;;;;5.32;88.58;94904.63;10287577;28;96783;-73
2021/12/27 14:40:28;;;;;;;4.93;1.60;;;;;;;5.31;88.58;94919.34;10291006;28;97931;-73
2021/12/27 14:45:31;;;;;;;1.65;1.23;;;;;;;5.29;88.83;94913.50;10291337;28;96827;-73
2021/12/27 14:50:35;;;;;;;3.35;1.85;;;;;;;5.28;88.73;94919.63;10290736;28;96662;-72
2021/12/27 14:55:42;;;;;;;1.80;1.42;;;;;;;5.30;88.94;94928.06;10290731;28;98064;-73
2021/12/27 15:00:48;;;;;;;2.25;1.55;;;;;;;5.32;89.04;94928.75;10295894;28;96970;-73
2021/12/27 15:05:50;;;;;;;3.75;1.40;;;;;;;5.38;88.71;94942.06;10295985;28;96826;-73
2021/12/27 15:10:55;;;;;;;3.55;1.77;;;;;;;5.36;89.01;94931.03;10299770;28;96819;-73
2021/12/27 15:15:58;;;;;;;4.07;2.23;;;;;;;5.37;88.73;94937.84;10297752;28;97277;-73
2021/12/27 15:21:01;;;;;;;3.13;2.20;;;;;;;5.37;88.91;94949.00;10294077;28;96935;-73
2021/12/27 15:26:07;;;;;;;3.42;2.20;;;;;;;5.36;88.77;94962.94;10299162;28;96853;-73
2021/12/27 15:31:10;;;;;;;3.60;2.58;;;;;;;5.36;89.12;94970.72;10297716;28;96773;-73
2021/12/27 15:36:13;;;;;;;3.92;2.50;;;;;;;5.39;89.30;94979.94;10293718;28;97883;-73
2021/12/27 15:41:18;;;;;;;4.18;2.60;;;;;;;5.38;88.95;94986.09;10298666;28;96727;-73
2021/12/27 15:46:21;;;;;;;4.57;2.87;;;;;;;5.40;89.16;94986.75;10296677;28;96944;-73
2021/12/27 15:51:24;;;;;;;4.93;2.90;;;;;;;5.37;89.33;95005.19;10294247;28;96978;-73
2021/12/27 15:56:28;;;;;;;4.38;2.88;;;;;;;5.34;89.09;95017.47;10296410;28;96880;-73
2021/12/27 16:01:32;;;;;;;4.20;2.80;;;;;;;5.36;89.08;95027.69;10297033;28;96908;-73
2021/12/27 16:06:36;;;;;;;3.40;2.27;;;;;;;5.33;89.38;95031.34;10295399;28;96934;-73
2021/12/27 16:11:40;;;;;;;3.72;2.60;;;;;;;5.39;89.22;95031.75;10275787;28;96777;-73
2021/12/27 16:16:43;;;;;;;3.67;2.92;;;;;;;5.40;89.11;95026.41;10295144;28;96920;-73
2021/12/27 16:21:46;;;;;;;4.78;2.50;;;;;;;5.45;89.05;95038.94;10295234;28;96881;-73
2021/12/27 16:26:51;;;;;;;2.72;1.80;;;;;;;5.46;89.18;95050.91;10293445;28;97146;-73
2021/12/27 16:31:53;;;;;;;3.50;2.30;;;;;;;5.44;89.30;95063.19;10297068;28;96808;-73
2021/12/27 16:36:57;;;;;;;3.30;2.33;;;;;;;5.43;89.07;95069.34;10294806;28;96951;-73
2021/12/27 16:42:02;;;;;;;4.22;2.25;;;;;;;5.44;88.91;95071.78;10291369;28;96891;-73
2021/12/27 16:47:06;;;;;;;3.73;2.57;;;;;;;5.50;88.87;95083.34;10298226;28;96849;-73
2021/12/27 16:52:09;;;;;;;3.13;2.30;;;;;;;5.56;88.70;95084.53;10295299;28;96894;-74
2021/12/27 16:57:14;;;;;;;4.15;2.40;;;;;;;5.63;88.68;95088.19;10291028;28;96704;-73
2021/12/27 17:02:17;;;;;;;4.00;2.60;;;;;;;5.59;88.57;95082.47;10296728;28;96916;-73
2021/12/27 17:07:20;;;;;;;3.47;2.40;;;;;;;5.59;88.41;95069.53;10292893;28;96990;-73
2021/12/27 17:12:25;;;;;;;4.25;3.03;;;;;;;5.59;88.38;95086.84;10292220;28;97142;-73
2021/12/27 17:17:28;;;;;;;4.03;3.07;;;;;;;5.57;88.39;95099.94;10294165;28;96945;-73
2021/12/27 17:22:31;;;;;;;4.30;3.17;;;;;;;5.59;87.93;95107.56;10293483;28;97145;-73
2021/12/27 17:27:36;;;;;;;6.38;4.78;;;;;;;5.56;88.05;95115.63;10292968;28;96875;-73
2021/12/27 17:32:39;;;;;;;6.22;4.50;;;;;;;5.49;88.10;95123.16;10276069;28;96764;-73
2021/12/27 17:37:42;;;;;;;7.05;4.40;;;;;;;5.53;88.01;95125.34;10292866;28;96886;-73
2021/12/27 17:42:47;;;;;;;4.90;4.03;;;;;;;5.53;88.12;95134.84;10294452;28;96904;-73
2021/12/27 17:47:52;;;;;;;7.60;4.97;;;;;;;5.49;88.39;95133.53;10291031;28;97135;-73
2021/12/27 17:52:56;;;;;;;4.38;3.92;;;;;;;5.41;88.41;95141.19;10294521;28;96711;-73
2021/12/27 17:58:01;;;;;;;6.70;4.60;;;;;;;5.40;88.84;95144.75;10291550;28;96816;-73
2021/12/27 18:03:04;;;;;;;6.88;4.18;;;;;;;5.42;89.01;95148.81;10287803;28;96935;-73
2021/12/27 18:08:08;;;;;;;4.95;4.38;;;;;;;5.39;88.97;95148.28;10291469;28;96900;-73
2021/12/27 18:13:13;;;;;;;5.03;4.03;;;;;;;5.37;89.08;95152.78;10292330;28;96800;-73
2021/12/27 18:18:16;;;;;;;5.70;4.53;;;;;;;5.37;89.34;95145.03;10288969;28;96774;-73
2021/12/27 18:23:20;;;;;;;6.13;4.43;;;;;;;5.36;88.91;95148.56;10293718;28;96747;-73
2021/12/27 18:28:24;;;;;;;5.53;4.55;;;;;;;5.36;89.25;95148.56;10291827;28;96989;-73
2021/12/27 18:33:27;;;;;;;6.30;4.95;;;;;;;5.38;89.10;95131.13;10292292;28;99740;-73
2021/12/27 18:38:30;;;;;;;9.13;5.65;;;;;;;5.39;89.09;95135.34;10298982;28;97140;-73
2021/12/27 18:43:34;;;;;;;7.45;6.57;;;;;;;5.41;88.94;95120.47;10298801;28;96701;-73
2021/12/27 18:48:37;;;;;;;9.18;6.82;;;;;;;5.42;88.77;95116.94;10297310;28;96752;-73
2021/12/27 18:53:40;;;;;;;11.57;8.95;;;;;;;5.41;88.82;95117.88;10279970;28;98114;-73
2021/12/27 18:58:46;;;;;;;13.02;10.02;;;;;;;5.43;88.32;95113.38;10298384;28;98833;-73
2021/12/27 19:03:49;;;;;;;9.85;8.43;;;;;;;5.48;88.77;95121.53;10296863;28;96866;-73
2021/12/27 19:08:52;;;;;;;8.75;6.75;;;;;;;5.40;89.19;95124.03;10295353;28;96785;-73
2021/12/27 19:13:56;;;;;;;9.45;6.95;;;;;;;5.42;89.07;95137.66;10299341;28;97158;-73
2021/12/27 19:18:59;;;;;;;9.13;6.87;;;;;;;5.43;89.22;95149.66;10296555;28;96778;-73
2021/12/27 19:24:02;;;;;;;8.98;6.43;;;;;;;5.45;89.05;95147.72;10294451;28;96877;-73
2021/12/27 19:29:06;;;;;;;8.02;5.45;;;;;;;5.50;89.18;95153.28;10301020;28;98644;-73
2021/12/27 19:34:09;;;;;;;6.70;4.97;;;;;;;5.53;89.17;95160.75;10296195;28;96912;-73
2021/12/27 19:39:12;;;;;;;7.68;5.00;;;;;;;5.53;89.16;95166.78;10292546;28;96781;-73
2021/12/27 19:44:17;;;;;;;8.50;4.82;;;;;;;5.53;89.10;95176.31;10299040;28;96710;-73
2021/12/27 19:49:20;;;;;;;7.77;4.33;;;;;;;5.47;89.25;95158.75;10296222;28;97038;-73
2021/12/27 19:54:24;;;;;;;5.00;4.18;;;;;;;5.48;89.34;95153.44;10293981;28;99146;-73
2021/12/27 19:59:35;;;;;;;4.63;3.53;;;;;;;5.50;89.29;95154.09;10295665;28;96747;-73
2021/12/27 20:04:38;;;;;;;5.60;3.50;;;;;;;5.55;89.17;95158.03;10296104;28;96811;-73
2021/12/27 20:09:41;;;;;;;11.57;7.57;;;;;;;5.51;88.71;95162.69;10296395;28;96987;-73
2021/12/27 20:14:46;;;;;;;7.30;5.72;;;;;;;5.53;89.05;95156.41;10294104;28;96869;-73
2021/12/27 20:19:49;;;;;;;7.03;4.50;;;;;;;5.54;88.61;95167.59;10296889;28;97005;-73
2021/12/27 20:24:53;;;;;;;6.45;4.07;;;;;;;5.59;88.62;95155.03;10295309;28;96969;-73
2021/12/27 20:29:57;;;;;;;6.05;3.55;;;;;;;5.55;88.58;95145.91;10291528;28;96855;-73
2021/12/27 20:35:00;;;;;;;5.33;3.73;;;;;;;5.53;88.69;95165.94;10298027;28;98452;-73
2021/12/27 20:40:04;;;;;;;4.78;3.75;;;;;;;5.59;88.68;95157.59;10294532;28;96870;-73
2021/12/27 20:45:12;;;;;;;5.32;4.00;;;;;;;5.65;88.61;95164.81;10290185;28;96886;-73
2021/12/27 20:50:19;;;;;;;4.80;3.58;;;;;;;5.68;88.30;95163.69;10296299;28;96798;-73
2021/12/27 20:55:22;;;;;;;5.13;3.75;;;;;;;5.59;88.08;95155.03;10293820;28;96981;-73
2021/12/27 21:00:29;;;;;;;6.38;4.30;;;;;;;5.59;87.89;95157.59;10291707;28;96861;-73
2021/12/27 21:05:33;;;;;;;5.97;4.20;;;;;;;5.60;87.97;95146.31;10294842;28;99583;-73
2021/12/27 21:10:45;;;;;;;10.17;6.70;;;;;;;5.61;87.81;95136.75;10295980;28;97528;-73
2021/12/27 21:15:49;;;;;;;6.32;4.28;;;;;;;5.61;87.66;95145.31;10293136;28;96919;-73
2021/12/27 21:21:03;;;;;;;18.10;11.00;;;;;;;5.63;87.61;95161.53;10288887;28;96858;-73
2021/12/27 21:26:06;;;;;;;32.80;22.25;;;;;;;5.49;87.77;95162.00;10297128;28;96834;-73
2021/12/27 21:31:10;;;;;;;8.27;6.20;;;;;;;5.52;87.90;95164.31;10292971;28;96874;-73
2021/12/27 21:36:19;;;;;;;6.28;4.85;;;;;;;5.48;88.10;95163.00;10289759;28;96679;-73
2021/12/27 21:41:22;;;;;;;9.80;5.82;;;;;;;5.50;88.14;95154.09;10294704;28;96950;-73
2021/12/27 21:46:31;;;;;;;7.53;5.07;;;;;;;5.43;88.23;95152.25;10292942;28;96888;-73
2021/12/27 21:51:35;;;;;;;8.57;4.57;;;;;;;5.42;88.58;95154.00;10292519;28;96816;-73
2021/12/27 21:56:38;;;;;;;8.57;5.35;;;;;;;5.43;88.68;95163.41;10291812;28;96761;-73
2021/12/27 22:01:42;;;;;;;7.90;4.85;;;;;;;5.43;88.73;95153.03;10293484;28;96846;-73
2021/12/27 22:06:46;;;;;;;6.03;4.32;;;;;;;5.49;88.49;95155.06;10292962;28;97106;-73
2021/12/27 22:11:49;;;;;;;6.90;4.93;;;;;;;5.49;88.27;95155.06;10295185;28;96876;-73
2021/12/27 22:17:09;;;;;;;7.45;4.93;;;;;;;5.48;88.46;95160.41;10294571;28;97121;-73
2021/12/27 22:22:12;;;;;;;7.00;4.77;;;;;;;5.47;88.44;95153.56;10300388;28;96938;-73
2021/12/27 22:27:15;;;;;;;7.10;5.28;;;;;;;5.47;88.32;95136.25;10295761;28;97179;-73
2021/12/27 22:32:20;;;;;;;9.38;6.82;;;;;;;5.51;88.24;95126.41;10301336;28;97130;-73
2021/12/27 22:37:22;;;;;;;9.18;6.45;;;;;;;5.52;88.45;95115.09;10298925;28;97089;-73
2021/12/27 22:42:25;;;;;;;9.00;6.55;;;;;;;5.55;88.31;95109.66;10296434;28;96845;-73
2021/12/27 22:47:30;;;;;;;7.78;5.28;;;;;;;5.51;88.14;95114.31;10299859;28;97907;-73
2021/12/27 22:52:32;;;;;;;7.55;5.30;;;;;;;5.50;88.15;95102.28;10298623;28;97041;-73
2021/12/27 22:57:35;;;;;;;6.30;4.88;;;;;;;5.50;88.32;95093.72;10297031;28;96650;-73
2021/12/27 23:02:40;;;;;;;6.18;4.55;;;;;;;5.59;88.11;95098.03;10294584;28;96699;-73
2021/12/27 23:07:43;;;;;;;5.97;4.40;;;;;;;5.62;88.16;95081.38;10295691;28;96756;-73
2021/12/27 23:12:46;;;;;;;7.45;4.55;;;;;;;5.60;88.14;95067.75;10295527;28;99151;-73
2021/12/27 23:17:50;;;;;;;9.63;5.45;;;;;;;5.59;88.30;95066.94;10293049;28;97829;-73
2021/12/27 23:22:54;;;;;;;6.70;4.53;;;;;;;5.62;88.18;95061.47;10296220;28;96820;-73
2021/12/27 23:28:00;;;;;;;6.20;4.72;;;;;;;5.63;88.09;95044.13;10294915;28;96668;-73
2021/12/27 23:33:11;;;;;;;6.40;4.43;;;;;;;5.60;88.07;95047.84;10290960;28;96854;-73
2021/12/27 23:38:16;;;;;;;6.75;4.28;;;;;;;5.58;88.17;95047.16;10297120;28;96717;-73
2021/12/27 23:43:19;;;;;;;6.72;3.50;;;;;;;5.59;88.25;95046.22;10294761;28;97110;-73
2021/12/27 23:48:23;;;;;;;6.20;3.92;;;;;;;5.57;88.23;95037.78;10291858;28;100162;-73